sensor_id;sensor_type;location;lat;lon;timestamp;temperature;humidity
13251;DHT22;6692;50.710;7.180;2022-11-27T00:00:12;6.90;99.90
13251;DHT22;6692;50.710;7.180;2022-11-27T00:02:14;6.90;99.90
13251;DHT22;6692;50.710;7.180;2022-11-27T00:04:15;6.90;99.90
13251;DHT22;6692;50.710;7.180;2022-11-27T00:06:17;6.90;99.90
13251;DHT22;6692;50.710;7.180;2022-11-27T00:08:16;6.90;99.90
13251;DHT22;6692;50.710;7.180;2022-11-27T00:10:18;6.90;99.90
13251;DHT22;6692;50.710;7.180;2022-11-27T00:12:20;6.90;99.90
13251;DHT22;6692;50.710;7.180;2022-11-27T00:14:21;6.90;99.90
13251;DHT22;6692;50.710;7.180;2022-11-27T00:16:22;6.90;99.90
13251;DHT22;6692;50.710;7.180;2022-11-27T00:18:22;6.90;99.90
13251;DHT22;6692;50.710;7.180;2022-11-27T00:20:23;6.80;99.90
13251;DHT22;6692;50.710;7.180;2022-11-27T00:22:23;6.80;99.90
13251;DHT22;6692;50.710;7.180;2022-11-27T00:24:24;6.80;99.90
13251;DHT22;6692;50.710;7.180;2022-11-27T00:26:25;6.80;99.90
13251;DHT22;6692;50.710;7.180;2022-11-27T00:28:25;6.80;99.90
13251;DHT22;6692;50.710;7.180;2022-11-27T00:30:26;6.80;99.90
13251;DHT22;6692;50.710;7.180;2022-11-27T00:32:27;6.80;99.90
13251;DHT22;6692;50.710;7.180;2022-11-27T00:34:27;6.80;99.90
13251;DHT22;6692;50.710;7.180;2022-11-27T00:36:29;6.70;99.90
13251;DHT22;6692;50.710;7.180;2022-11-27T00:38:29;6.80;99.90
13251;DHT22;6692;50.710;7.180;2022-11-27T00:40:30;6.70;99.90
13251;DHT22;6692;50.710;7.180;2022-11-27T00:42:31;6.70;99.90
13251;DHT22;6692;50.710;7.180;2022-11-27T00:44:32;6.70;99.90
13251;DHT22;6692;50.710;7.180;2022-11-27T00:46:33;6.70;99.90
13251;DHT22;6692;50.710;7.180;2022-11-27T00:48:34;6.70;99.90
13251;DHT22;6692;50.710;7.180;2022-11-27T00:50:34;6.70;99.90
13251;DHT22;6692;50.710;7.180;2022-11-27T00:52:35;6.60;99.90
13251;DHT22;6692;50.710;7.180;2022-11-27T00:54:35;6.60;99.90
13251;DHT22;6692;50.710;7.180;2022-11-27T00:56:38;6.60;99.90
13251;DHT22;6692;50.710;7.180;2022-11-27T00:58:39;6.60;99.90
13251;DHT22;6692;50.710;7.180;2022-11-27T01:00:40;6.60;99.90
13251;DHT22;6692;50.710;7.180;2022-11-27T01:02:42;6.60;99.90
13251;DHT22;6692;50.710;7.180;2022-11-27T01:04:44;6.50;99.90
13251;DHT22;6692;50.710;7.180;2022-11-27T01:06:44;6.50;99.90
13251;DHT22;6692;50.710;7.180;2022-11-27T01:08:45;6.50;99.90
13251;DHT22;6692;50.710;7.180;2022-11-27T01:10:50;6.50;99.90
13251;DHT22;6692;50.710;7.180;2022-11-27T01:12:51;6.50;99.90
13251;DHT22;6692;50.710;7.180;2022-11-27T01:14:51;6.50;99.90
13251;DHT22;6692;50.710;7.180;2022-11-27T01:16:52;6.50;99.90
13251;DHT22;6692;50.710;7.180;2022-11-27T01:18:53;6.50;99.90
13251;DHT22;6692;50.710;7.180;2022-11-27T01:20:54;6.40;99.90
13251;DHT22;6692;50.710;7.180;2022-11-27T01:22:55;6.40;99.90
13251;DHT22;6692;50.710;7.180;2022-11-27T01:24:56;6.40;99.90
13251;DHT22;6692;50.710;7.180;2022-11-27T01:26:56;6.40;99.90
13251;DHT22;6692;50.710;7.180;2022-11-27T01:28:57;6.40;99.90
13251;DHT22;6692;50.710;7.180;2022-11-27T01:30:58;6.40;99.90
13251;DHT22;6692;50.710;7.180;2022-11-27T01:32:59;6.40;99.90
13251;DHT22;6692;50.710;7.180;2022-11-27T01:35:00;6.40;99.90
13251;DHT22;6692;50.710;7.180;2022-11-27T01:37:00;6.40;99.90
13251;DHT22;6692;50.710;7.180;2022-11-27T01:39:01;6.40;99.90
13251;DHT22;6692;50.710;7.180;2022-11-27T01:41:06;6.40;99.90
13251;DHT22;6692;50.710;7.180;2022-11-27T01:43:08;6.40;99.90
13251;DHT22;6692;50.710;7.180;2022-11-27T01:45:07;6.40;99.90
13251;DHT22;6692;50.710;7.180;2022-11-27T01:47:11;6.50;99.90
13251;DHT22;6692;50.710;7.180;2022-11-27T01:49:25;6.40;99.90
13251;DHT22;6692;50.710;7.180;2022-11-27T01:51:24;6.40;99.90
13251;DHT22;6692;50.710;7.180;2022-11-27T01:53:26;6.40;99.90
13251;DHT22;6692;50.710;7.180;2022-11-27T01:55:30;6.40;99.90
13251;DHT22;6692;50.710;7.180;2022-11-27T01:57:30;6.40;99.90
13251;DHT22;6692;50.710;7.180;2022-11-27T01:59:29;6.40;99.90
13251;DHT22;6692;50.710;7.180;2022-11-27T02:01:30;6.40;99.90
13251;DHT22;6692;50.710;7.180;2022-11-27T02:03:31;6.40;99.90
13251;DHT22;6692;50.710;7.180;2022-11-27T02:05:31;6.40;99.90
13251;DHT22;6692;50.710;7.180;2022-11-27T02:07:33;6.30;99.90
13251;DHT22;6692;50.710;7.180;2022-11-27T02:09:33;6.30;99.90
13251;DHT22;6692;50.710;7.180;2022-11-27T02:11:46;6.30;99.90
13251;DHT22;6692;50.710;7.180;2022-11-27T02:13:53;6.30;99.90
13251;DHT22;6692;50.710;7.180;2022-11-27T02:15:54;6.30;99.90
13251;DHT22;6692;50.710;7.180;2022-11-27T02:18:07;6.30;99.90
13251;DHT22;6692;50.710;7.180;2022-11-27T02:20:30;6.30;99.90
13251;DHT22;6692;50.710;7.180;2022-11-27T02:22:42;6.20;99.90
13251;DHT22;6692;50.710;7.180;2022-11-27T02:24:46;6.20;99.90
13251;DHT22;6692;50.710;7.180;2022-11-27T02:27:32;6.20;99.90
13251;DHT22;6692;50.710;7.180;2022-11-27T02:29:10;6.20;99.90
13251;DHT22;6692;50.710;7.180;2022-11-27T02:31:13;6.20;99.90
13251;DHT22;6692;50.710;7.180;2022-11-27T02:33:11;6.20;99.90
13251;DHT22;6692;50.710;7.180;2022-11-27T02:35:47;6.10;99.90
13251;DHT22;6692;50.710;7.180;2022-11-27T02:37:31;6.10;99.90
13251;DHT22;6692;50.710;7.180;2022-11-27T02:39:33;6.10;99.90
13251;DHT22;6692;50.710;7.180;2022-11-27T02:41:34;6.00;99.90
13251;DHT22;6692;50.710;7.180;2022-11-27T02:43:35;6.10;99.90
13251;DHT22;6692;50.710;7.180;2022-11-27T02:45:38;6.00;99.90
13251;DHT22;6692;50.710;7.180;2022-11-27T02:47:37;6.00;99.90
13251;DHT22;6692;50.710;7.180;2022-11-27T02:49:38;6.00;99.90
13251;DHT22;6692;50.710;7.180;2022-11-27T02:51:40;6.00;99.90
13251;DHT22;6692;50.710;7.180;2022-11-27T02:53:42;6.10;99.90
13251;DHT22;6692;50.710;7.180;2022-11-27T02:55:41;6.10;99.90
13251;DHT22;6692;50.710;7.180;2022-11-27T02:57:41;6.10;99.90
13251;DHT22;6692;50.710;7.180;2022-11-27T02:59:42;6.20;99.90
13251;DHT22;6692;50.710;7.180;2022-11-27T03:01:44;6.20;99.90
13251;DHT22;6692;50.710;7.180;2022-11-27T03:03:45;6.20;99.90
13251;DHT22;6692;50.710;7.180;2022-11-27T03:05:45;6.20;99.90
13251;DHT22;6692;50.710;7.180;2022-11-27T03:07:52;6.20;99.90
13251;DHT22;6692;50.710;7.180;2022-11-27T03:09:53;6.10;99.90
13251;DHT22;6692;50.710;7.180;2022-11-27T03:11:53;6.10;99.90
13251;DHT22;6692;50.710;7.180;2022-11-27T03:13:54;6.10;99.90
13251;DHT22;6692;50.710;7.180;2022-11-27T03:16:04;6.10;99.90
13251;DHT22;6692;50.710;7.180;2022-11-27T03:18:03;6.00;99.90
13251;DHT22;6692;50.710;7.180;2022-11-27T03:20:20;6.00;99.90
13251;DHT22;6692;50.710;7.180;2022-11-27T03:22:18;6.00;99.90
13251;DHT22;6692;50.710;7.180;2022-11-27T03:24:19;5.90;99.90
13251;DHT22;6692;50.710;7.180;2022-11-27T03:26:19;5.90;99.90
13251;DHT22;6692;50.710;7.180;2022-11-27T03:28:20;5.90;99.90
13251;DHT22;6692;50.710;7.180;2022-11-27T03:30:21;5.90;99.90
13251;DHT22;6692;50.710;7.180;2022-11-27T03:32:21;5.90;99.90
13251;DHT22;6692;50.710;7.180;2022-11-27T03:34:22;5.90;99.90
13251;DHT22;6692;50.710;7.180;2022-11-27T03:36:23;5.80;99.90
13251;DHT22;6692;50.710;7.180;2022-11-27T03:38:23;5.80;99.90
13251;DHT22;6692;50.710;7.180;2022-11-27T03:40:28;5.80;99.90
13251;DHT22;6692;50.710;7.180;2022-11-27T03:42:32;5.80;99.90
13251;DHT22;6692;50.710;7.180;2022-11-27T03:44:34;5.80;99.90
13251;DHT22;6692;50.710;7.180;2022-11-27T03:46:38;5.80;99.90
13251;DHT22;6692;50.710;7.180;2022-11-27T03:48:37;5.70;99.90
13251;DHT22;6692;50.710;7.180;2022-11-27T03:50:47;5.70;99.90
13251;DHT22;6692;50.710;7.180;2022-11-27T03:53:01;5.70;99.90
13251;DHT22;6692;50.710;7.180;2022-11-27T03:55:05;5.80;99.90
13251;DHT22;6692;50.710;7.180;2022-11-27T03:57:06;5.70;99.90
13251;DHT22;6692;50.710;7.180;2022-11-27T03:59:09;5.70;99.90
13251;DHT22;6692;50.710;7.180;2022-11-27T04:01:09;5.70;99.90
13251;DHT22;6692;50.710;7.180;2022-11-27T04:03:09;5.70;99.90
13251;DHT22;6692;50.710;7.180;2022-11-27T04:05:10;5.70;99.90
13251;DHT22;6692;50.710;7.180;2022-11-27T04:07:15;5.80;99.90
13251;DHT22;6692;50.710;7.180;2022-11-27T04:09:11;5.80;99.90
13251;DHT22;6692;50.710;7.180;2022-11-27T04:11:13;5.90;99.90
13251;DHT22;6692;50.710;7.180;2022-11-27T04:13:14;5.90;99.90
13251;DHT22;6692;50.710;7.180;2022-11-27T04:15:14;6.00;99.90
13251;DHT22;6692;50.710;7.180;2022-11-27T04:17:15;6.10;99.90
13251;DHT22;6692;50.710;7.180;2022-11-27T04:19:16;6.20;99.90
13251;DHT22;6692;50.710;7.180;2022-11-27T04:21:18;6.20;99.90
13251;DHT22;6692;50.710;7.180;2022-11-27T04:23:19;6.20;99.90
13251;DHT22;6692;50.710;7.180;2022-11-27T04:25:20;6.30;99.90
13251;DHT22;6692;50.710;7.180;2022-11-27T04:27:20;6.30;99.90
13251;DHT22;6692;50.710;7.180;2022-11-27T04:29:21;6.30;99.90
13251;DHT22;6692;50.710;7.180;2022-11-27T04:31:22;6.40;99.90
13251;DHT22;6692;50.710;7.180;2022-11-27T04:33:23;6.30;99.90
13251;DHT22;6692;50.710;7.180;2022-11-27T04:35:23;6.40;99.90
13251;DHT22;6692;50.710;7.180;2022-11-27T04:37:25;6.40;99.90
13251;DHT22;6692;50.710;7.180;2022-11-27T04:39:26;6.40;99.90
13251;DHT22;6692;50.710;7.180;2022-11-27T04:41:27;6.40;99.90
13251;DHT22;6692;50.710;7.180;2022-11-27T04:43:27;6.40;99.90
13251;DHT22;6692;50.710;7.180;2022-11-27T04:45:28;6.50;99.90
13251;DHT22;6692;50.710;7.180;2022-11-27T04:47:29;6.50;99.90
13251;DHT22;6692;50.710;7.180;2022-11-27T04:49:29;6.50;99.90
13251;DHT22;6692;50.710;7.180;2022-11-27T04:51:31;6.50;99.90
13251;DHT22;6692;50.710;7.180;2022-11-27T04:53:32;6.50;99.90
13251;DHT22;6692;50.710;7.180;2022-11-27T04:55:33;6.50;99.90
13251;DHT22;6692;50.710;7.180;2022-11-27T04:57:34;6.60;99.90
13251;DHT22;6692;50.710;7.180;2022-11-27T04:59:34;6.50;99.90
13251;DHT22;6692;50.710;7.180;2022-11-27T05:01:35;6.60;99.90
13251;DHT22;6692;50.710;7.180;2022-11-27T05:03:36;6.60;99.90
13251;DHT22;6692;50.710;7.180;2022-11-27T05:05:37;6.60;99.90
13251;DHT22;6692;50.710;7.180;2022-11-27T05:07:38;6.60;99.90
13251;DHT22;6692;50.710;7.180;2022-11-27T05:09:38;6.60;99.90
13251;DHT22;6692;50.710;7.180;2022-11-27T05:11:39;6.60;99.90
13251;DHT22;6692;50.710;7.180;2022-11-27T05:13:41;6.60;99.90
13251;DHT22;6692;50.710;7.180;2022-11-27T05:15:41;6.60;99.90
13251;DHT22;6692;50.710;7.180;2022-11-27T05:17:42;6.60;99.90
13251;DHT22;6692;50.710;7.180;2022-11-27T05:19:43;6.70;99.90
13251;DHT22;6692;50.710;7.180;2022-11-27T05:21:43;6.60;99.90
13251;DHT22;6692;50.710;7.180;2022-11-27T05:23:45;6.70;99.90
13251;DHT22;6692;50.710;7.180;2022-11-27T05:25:45;6.70;99.90
13251;DHT22;6692;50.710;7.180;2022-11-27T05:27:46;6.70;99.90
13251;DHT22;6692;50.710;7.180;2022-11-27T05:29:47;6.70;99.90
13251;DHT22;6692;50.710;7.180;2022-11-27T05:31:48;6.70;99.90
13251;DHT22;6692;50.710;7.180;2022-11-27T05:33:48;6.70;99.90
13251;DHT22;6692;50.710;7.180;2022-11-27T05:35:49;6.70;99.90
13251;DHT22;6692;50.710;7.180;2022-11-27T05:37:50;6.70;99.90
13251;DHT22;6692;50.710;7.180;2022-11-27T05:39:51;6.70;99.90
13251;DHT22;6692;50.710;7.180;2022-11-27T05:41:51;6.70;99.90
13251;DHT22;6692;50.710;7.180;2022-11-27T05:43:52;6.80;99.90
13251;DHT22;6692;50.710;7.180;2022-11-27T05:45:53;6.80;99.90
13251;DHT22;6692;50.710;7.180;2022-11-27T05:47:53;6.80;99.90
13251;DHT22;6692;50.710;7.180;2022-11-27T05:49:55;6.80;99.90
13251;DHT22;6692;50.710;7.180;2022-11-27T05:51:56;6.80;99.90
13251;DHT22;6692;50.710;7.180;2022-11-27T05:53:56;6.80;99.90
13251;DHT22;6692;50.710;7.180;2022-11-27T05:56:07;6.80;99.90
13251;DHT22;6692;50.710;7.180;2022-11-27T05:58:07;6.80;99.90
13251;DHT22;6692;50.710;7.180;2022-11-27T06:00:09;6.80;99.90
13251;DHT22;6692;50.710;7.180;2022-11-27T06:02:10;6.80;99.90
13251;DHT22;6692;50.710;7.180;2022-11-27T06:04:11;6.80;99.90
13251;DHT22;6692;50.710;7.180;2022-11-27T06:06:13;6.80;99.90
13251;DHT22;6692;50.710;7.180;2022-11-27T06:08:13;6.90;99.90
13251;DHT22;6692;50.710;7.180;2022-11-27T06:10:14;6.80;99.90
13251;DHT22;6692;50.710;7.180;2022-11-27T06:12:15;6.90;99.90
13251;DHT22;6692;50.710;7.180;2022-11-27T06:14:16;6.90;99.90
13251;DHT22;6692;50.710;7.180;2022-11-27T06:16:18;6.90;99.90
13251;DHT22;6692;50.710;7.180;2022-11-27T06:18:17;6.90;99.90
13251;DHT22;6692;50.710;7.180;2022-11-27T06:20:18;7.00;99.90
13251;DHT22;6692;50.710;7.180;2022-11-27T06:22:19;7.00;99.90
13251;DHT22;6692;50.710;7.180;2022-11-27T06:24:20;7.00;99.90
13251;DHT22;6692;50.710;7.180;2022-11-27T06:26:23;7.00;99.90
13251;DHT22;6692;50.710;7.180;2022-11-27T06:28:22;7.00;99.90
13251;DHT22;6692;50.710;7.180;2022-11-27T06:30:23;7.00;99.90
13251;DHT22;6692;50.710;7.180;2022-11-27T06:32:23;7.00;99.90
13251;DHT22;6692;50.710;7.180;2022-11-27T06:34:24;7.00;99.90
13251;DHT22;6692;50.710;7.180;2022-11-27T06:36:27;7.00;99.90
13251;DHT22;6692;50.710;7.180;2022-11-27T06:38:26;7.00;99.90
13251;DHT22;6692;50.710;7.180;2022-11-27T06:40:27;7.10;99.90
13251;DHT22;6692;50.710;7.180;2022-11-27T06:42:28;7.10;99.90
13251;DHT22;6692;50.710;7.180;2022-11-27T06:44:28;7.10;99.90
13251;DHT22;6692;50.710;7.180;2022-11-27T06:46:29;7.10;99.90
13251;DHT22;6692;50.710;7.180;2022-11-27T06:48:30;7.10;99.90
13251;DHT22;6692;50.710;7.180;2022-11-27T06:50:30;7.10;99.90
13251;DHT22;6692;50.710;7.180;2022-11-27T06:52:31;7.10;99.90
13251;DHT22;6692;50.710;7.180;2022-11-27T06:54:32;7.10;99.90
13251;DHT22;6692;50.710;7.180;2022-11-27T06:56:32;7.10;99.90
13251;DHT22;6692;50.710;7.180;2022-11-27T06:58:34;7.20;99.90
13251;DHT22;6692;50.710;7.180;2022-11-27T07:00:34;7.20;99.90
13251;DHT22;6692;50.710;7.180;2022-11-27T07:02:35;7.20;99.90
13251;DHT22;6692;50.710;7.180;2022-11-27T07:04:36;7.20;99.90
13251;DHT22;6692;50.710;7.180;2022-11-27T07:06:37;7.20;99.90
13251;DHT22;6692;50.710;7.180;2022-11-27T07:08:38;7.20;99.90
13251;DHT22;6692;50.710;7.180;2022-11-27T07:10:40;7.30;99.90
13251;DHT22;6692;50.710;7.180;2022-11-27T07:12:40;7.20;99.90
13251;DHT22;6692;50.710;7.180;2022-11-27T07:14:41;7.30;99.90
13251;DHT22;6692;50.710;7.180;2022-11-27T07:16:42;7.30;99.90
13251;DHT22;6692;50.710;7.180;2022-11-27T07:18:46;7.30;99.90
13251;DHT22;6692;50.710;7.180;2022-11-27T07:20:50;7.30;99.90
13251;DHT22;6692;50.710;7.180;2022-11-27T07:22:51;7.30;99.90
13251;DHT22;6692;50.710;7.180;2022-11-27T07:24:53;7.40;99.90
13251;DHT22;6692;50.710;7.180;2022-11-27T07:26:53;7.40;99.90
13251;DHT22;6692;50.710;7.180;2022-11-27T07:28:55;7.40;99.90
13251;DHT22;6692;50.710;7.180;2022-11-27T07:30:56;7.40;99.90
13251;DHT22;6692;50.710;7.180;2022-11-27T07:32:57;7.50;99.90
13251;DHT22;6692;50.710;7.180;2022-11-27T07:34:58;7.50;99.90
13251;DHT22;6692;50.710;7.180;2022-11-27T07:36:58;7.50;99.90
13251;DHT22;6692;50.710;7.180;2022-11-27T07:38:59;7.50;99.90
13251;DHT22;6692;50.710;7.180;2022-11-27T07:41:01;7.50;99.90
13251;DHT22;6692;50.710;7.180;2022-11-27T07:43:02;7.50;99.90
13251;DHT22;6692;50.710;7.180;2022-11-27T07:45:03;7.50;99.90
13251;DHT22;6692;50.710;7.180;2022-11-27T07:47:04;7.50;99.90
13251;DHT22;6692;50.710;7.180;2022-11-27T07:49:04;7.50;99.90
13251;DHT22;6692;50.710;7.180;2022-11-27T07:51:07;7.60;99.90
13251;DHT22;6692;50.710;7.180;2022-11-27T07:53:08;7.60;99.90
13251;DHT22;6692;50.710;7.180;2022-11-27T07:55:09;7.60;99.90
13251;DHT22;6692;50.710;7.180;2022-11-27T07:57:10;7.70;99.90
13251;DHT22;6692;50.710;7.180;2022-11-27T07:59:11;7.60;99.90
13251;DHT22;6692;50.710;7.180;2022-11-27T08:01:13;7.70;99.90
13251;DHT22;6692;50.710;7.180;2022-11-27T08:03:12;7.70;99.90
13251;DHT22;6692;50.710;7.180;2022-11-27T08:05:13;7.80;99.90
13251;DHT22;6692;50.710;7.180;2022-11-27T08:07:14;7.90;99.90
13251;DHT22;6692;50.710;7.180;2022-11-27T08:09:15;7.80;99.90
13251;DHT22;6692;50.710;7.180;2022-11-27T08:11:18;7.90;99.90
13251;DHT22;6692;50.710;7.180;2022-11-27T08:13:17;8.00;99.90
13251;DHT22;6692;50.710;7.180;2022-11-27T08:15:18;8.10;99.90
13251;DHT22;6692;50.710;7.180;2022-11-27T08:17:19;8.10;99.90
13251;DHT22;6692;50.710;7.180;2022-11-27T08:19:19;8.10;99.90
13251;DHT22;6692;50.710;7.180;2022-11-27T08:21:20;8.20;99.90
13251;DHT22;6692;50.710;7.180;2022-11-27T08:23:21;8.30;99.90
13251;DHT22;6692;50.710;7.180;2022-11-27T08:25:21;8.30;99.90
13251;DHT22;6692;50.710;7.180;2022-11-27T08:27:22;8.30;99.90
13251;DHT22;6692;50.710;7.180;2022-11-27T08:29:23;8.40;99.90
13251;DHT22;6692;50.710;7.180;2022-11-27T08:31:24;8.40;99.90
13251;DHT22;6692;50.710;7.180;2022-11-27T08:33:25;8.50;99.90
13251;DHT22;6692;50.710;7.180;2022-11-27T08:35:26;8.50;99.90
13251;DHT22;6692;50.710;7.180;2022-11-27T08:37:27;8.50;99.90
13251;DHT22;6692;50.710;7.180;2022-11-27T08:39:28;8.60;99.90
13251;DHT22;6692;50.710;7.180;2022-11-27T08:41:28;8.60;99.90
13251;DHT22;6692;50.710;7.180;2022-11-27T08:43:29;8.60;99.90
13251;DHT22;6692;50.710;7.180;2022-11-27T08:45:30;8.70;99.90
13251;DHT22;6692;50.710;7.180;2022-11-27T08:47:30;8.70;99.90
13251;DHT22;6692;50.710;7.180;2022-11-27T08:49:31;8.70;99.90
13251;DHT22;6692;50.710;7.180;2022-11-27T08:51:32;8.70;99.90
13251;DHT22;6692;50.710;7.180;2022-11-27T08:53:33;8.80;99.90
13251;DHT22;6692;50.710;7.180;2022-11-27T08:55:34;8.70;99.90
13251;DHT22;6692;50.710;7.180;2022-11-27T08:57:34;8.80;99.90
13251;DHT22;6692;50.710;7.180;2022-11-27T08:59:35;8.80;99.90
13251;DHT22;6692;50.710;7.180;2022-11-27T09:01:36;8.80;99.90
13251;DHT22;6692;50.710;7.180;2022-11-27T09:03:36;8.80;99.90
13251;DHT22;6692;50.710;7.180;2022-11-27T09:05:40;8.90;99.90
13251;DHT22;6692;50.710;7.180;2022-11-27T09:07:38;8.90;99.90
13251;DHT22;6692;50.710;7.180;2022-11-27T09:09:39;8.90;99.90
13251;DHT22;6692;50.710;7.180;2022-11-27T09:11:40;9.00;99.90
13251;DHT22;6692;50.710;7.180;2022-11-27T09:13:41;9.00;99.90
13251;DHT22;6692;50.710;7.180;2022-11-27T09:15:42;9.10;99.90
13251;DHT22;6692;50.710;7.180;2022-11-27T09:17:43;9.20;99.90
13251;DHT22;6692;50.710;7.180;2022-11-27T09:19:44;9.10;99.90
13251;DHT22;6692;50.710;7.180;2022-11-27T09:21:45;9.20;99.90
13251;DHT22;6692;50.710;7.180;2022-11-27T09:23:45;9.30;99.90
13251;DHT22;6692;50.710;7.180;2022-11-27T09:25:46;9.30;99.90
13251;DHT22;6692;50.710;7.180;2022-11-27T09:27:47;9.40;99.90
13251;DHT22;6692;50.710;7.180;2022-11-27T09:29:48;9.30;99.90
13251;DHT22;6692;50.710;7.180;2022-11-27T09:31:49;9.40;99.90
13251;DHT22;6692;50.710;7.180;2022-11-27T09:33:49;9.30;99.90
13251;DHT22;6692;50.710;7.180;2022-11-27T09:35:51;9.40;99.90
13251;DHT22;6692;50.710;7.180;2022-11-27T09:37:52;9.40;99.90
13251;DHT22;6692;50.710;7.180;2022-11-27T09:39:52;9.30;99.90
13251;DHT22;6692;50.710;7.180;2022-11-27T09:41:54;9.30;99.90
13251;DHT22;6692;50.710;7.180;2022-11-27T09:43:56;9.30;99.90
13251;DHT22;6692;50.710;7.180;2022-11-27T09:45:57;9.30;99.90
13251;DHT22;6692;50.710;7.180;2022-11-27T09:47:58;9.30;99.90
13251;DHT22;6692;50.710;7.180;2022-11-27T09:50:03;9.40;99.90
13251;DHT22;6692;50.710;7.180;2022-11-27T09:52:19;9.40;99.90
13251;DHT22;6692;50.710;7.180;2022-11-27T09:54:22;9.50;99.90
13251;DHT22;6692;50.710;7.180;2022-11-27T09:56:20;9.70;99.90
13251;DHT22;6692;50.710;7.180;2022-11-27T09:58:38;9.60;99.90
13251;DHT22;6692;50.710;7.180;2022-11-27T10:00:38;9.70;99.90
13251;DHT22;6692;50.710;7.180;2022-11-27T10:02:39;9.70;99.90
13251;DHT22;6692;50.710;7.180;2022-11-27T10:04:40;9.70;99.90
13251;DHT22;6692;50.710;7.180;2022-11-27T10:07:04;9.80;99.90
13251;DHT22;6692;50.710;7.180;2022-11-27T10:09:42;9.90;99.90
13251;DHT22;6692;50.710;7.180;2022-11-27T10:11:37;9.90;99.90
13251;DHT22;6692;50.710;7.180;2022-11-27T10:13:47;9.90;99.90
13251;DHT22;6692;50.710;7.180;2022-11-27T10:15:49;10.00;99.90
13251;DHT22;6692;50.710;7.180;2022-11-27T10:17:54;9.90;99.90
13251;DHT22;6692;50.710;7.180;2022-11-27T10:20:02;9.90;99.90
13251;DHT22;6692;50.710;7.180;2022-11-27T10:22:26;9.90;99.90
13251;DHT22;6692;50.710;7.180;2022-11-27T10:24:46;9.90;99.90
13251;DHT22;6692;50.710;7.180;2022-11-27T10:26:46;9.80;99.90
13251;DHT22;6692;50.710;7.180;2022-11-27T10:28:59;9.80;99.90
13251;DHT22;6692;50.710;7.180;2022-11-27T10:31:02;9.80;99.90
13251;DHT22;6692;50.710;7.180;2022-11-27T10:33:02;9.80;99.90
13251;DHT22;6692;50.710;7.180;2022-11-27T10:35:09;9.90;99.90
13251;DHT22;6692;50.710;7.180;2022-11-27T10:37:17;9.80;99.90
13251;DHT22;6692;50.710;7.180;2022-11-27T10:39:24;9.90;99.90
13251;DHT22;6692;50.710;7.180;2022-11-27T10:41:30;10.00;99.90
13251;DHT22;6692;50.710;7.180;2022-11-27T10:43:29;10.00;99.90
13251;DHT22;6692;50.710;7.180;2022-11-27T10:45:39;10.10;99.90
13251;DHT22;6692;50.710;7.180;2022-11-27T10:47:38;10.10;99.90
13251;DHT22;6692;50.710;7.180;2022-11-27T10:49:40;10.10;99.90
13251;DHT22;6692;50.710;7.180;2022-11-27T10:51:40;10.10;99.90
13251;DHT22;6692;50.710;7.180;2022-11-27T10:53:41;10.20;99.90
13251;DHT22;6692;50.710;7.180;2022-11-27T10:55:49;10.10;99.90
13251;DHT22;6692;50.710;7.180;2022-11-27T11:00:13;10.10;99.90
13251;DHT22;6692;50.710;7.180;2022-11-27T11:02:24;10.10;99.90
13251;DHT22;6692;50.710;7.180;2022-11-27T11:04:26;10.00;99.90
13251;DHT22;6692;50.710;7.180;2022-11-27T11:06:25;10.00;99.90
13251;DHT22;6692;50.710;7.180;2022-11-27T11:08:26;10.10;99.90
13251;DHT22;6692;50.710;7.180;2022-11-27T11:10:30;10.00;99.90
13251;DHT22;6692;50.710;7.180;2022-11-27T11:12:29;10.10;99.90
13251;DHT22;6692;50.710;7.180;2022-11-27T11:14:29;10.10;99.90
13251;DHT22;6692;50.710;7.180;2022-11-27T11:16:30;10.20;99.90
13251;DHT22;6692;50.710;7.180;2022-11-27T11:18:40;10.10;99.90
13251;DHT22;6692;50.710;7.180;2022-11-27T11:20:34;10.20;99.90
13251;DHT22;6692;50.710;7.180;2022-11-27T11:22:42;10.30;99.90
13251;DHT22;6692;50.710;7.180;2022-11-27T11:24:37;10.30;99.90
13251;DHT22;6692;50.710;7.180;2022-11-27T11:26:42;10.40;99.90
13251;DHT22;6692;50.710;7.180;2022-11-27T11:28:45;10.50;99.90
13251;DHT22;6692;50.710;7.180;2022-11-27T11:30:50;10.50;99.90
13251;DHT22;6692;50.710;7.180;2022-11-27T11:32:43;10.60;99.90
13251;DHT22;6692;50.710;7.180;2022-11-27T11:34:46;10.60;99.90
13251;DHT22;6692;50.710;7.180;2022-11-27T11:37:01;10.60;99.90
13251;DHT22;6692;50.710;7.180;2022-11-27T11:39:02;10.60;99.90
13251;DHT22;6692;50.710;7.180;2022-11-27T11:41:05;10.60;99.90
13251;DHT22;6692;50.710;7.180;2022-11-27T11:43:06;10.50;99.90
13251;DHT22;6692;50.710;7.180;2022-11-27T11:45:19;10.50;99.90
13251;DHT22;6692;50.710;7.180;2022-11-27T11:47:20;10.40;99.90
13251;DHT22;6692;50.710;7.180;2022-11-27T11:49:22;10.40;99.90
13251;DHT22;6692;50.710;7.180;2022-11-27T11:51:33;10.50;99.90
13251;DHT22;6692;50.710;7.180;2022-11-27T11:53:38;10.50;99.90
13251;DHT22;6692;50.710;7.180;2022-11-27T11:55:39;10.50;99.90
13251;DHT22;6692;50.710;7.180;2022-11-27T11:57:50;10.40;99.90
13251;DHT22;6692;50.710;7.180;2022-11-27T11:59:57;10.50;99.90
13251;DHT22;6692;50.710;7.180;2022-11-27T12:02:19;10.50;99.90
13251;DHT22;6692;50.710;7.180;2022-11-27T12:04:19;10.50;99.90
13251;DHT22;6692;50.710;7.180;2022-11-27T12:06:53;10.50;99.90
13251;DHT22;6692;50.710;7.180;2022-11-27T12:11:14;10.60;99.90
13251;DHT22;6692;50.710;7.180;2022-11-27T12:13:24;10.60;99.90
13251;DHT22;6692;50.710;7.180;2022-11-27T12:19:55;10.70;99.90
13251;DHT22;6692;50.710;7.180;2022-11-27T12:22:18;10.70;99.90
13251;DHT22;6692;50.710;7.180;2022-11-27T12:27:01;10.70;99.90
13251;DHT22;6692;50.710;7.180;2022-11-27T12:29:05;10.70;99.90
13251;DHT22;6692;50.710;7.180;2022-11-27T12:31:07;10.70;99.90
13251;DHT22;6692;50.710;7.180;2022-11-27T12:37:31;10.70;99.90
13251;DHT22;6692;50.710;7.180;2022-11-27T12:40:40;10.70;99.90
13251;DHT22;6692;50.710;7.180;2022-11-27T12:42:03;10.70;99.90
13251;DHT22;6692;50.710;7.180;2022-11-27T12:44:01;10.70;99.90
13251;DHT22;6692;50.710;7.180;2022-11-27T12:46:23;10.70;99.90
13251;DHT22;6692;50.710;7.180;2022-11-27T12:48:30;10.70;99.90
13251;DHT22;6692;50.710;7.180;2022-11-27T12:50:35;10.70;99.90
13251;DHT22;6692;50.710;7.180;2022-11-27T12:52:37;10.70;99.90
13251;DHT22;6692;50.710;7.180;2022-11-27T12:54:50;10.60;99.90
13251;DHT22;6692;50.710;7.180;2022-11-27T12:56:56;10.60;99.90
13251;DHT22;6692;50.710;7.180;2022-11-27T12:58:59;10.60;99.90
13251;DHT22;6692;50.710;7.180;2022-11-27T13:01:00;10.60;99.90
13251;DHT22;6692;50.710;7.180;2022-11-27T13:03:04;10.60;99.90
13251;DHT22;6692;50.710;7.180;2022-11-27T13:05:04;10.50;99.90
13251;DHT22;6692;50.710;7.180;2022-11-27T13:07:08;10.50;99.90
13251;DHT22;6692;50.710;7.180;2022-11-27T13:09:09;10.50;99.90
13251;DHT22;6692;50.710;7.180;2022-11-27T13:11:09;10.50;99.90
13251;DHT22;6692;50.710;7.180;2022-11-27T13:13:15;10.50;99.90
13251;DHT22;6692;50.710;7.180;2022-11-27T13:15:30;10.50;99.90
13251;DHT22;6692;50.710;7.180;2022-11-27T13:17:33;10.50;99.90
13251;DHT22;6692;50.710;7.180;2022-11-27T13:19:32;10.50;99.90
13251;DHT22;6692;50.710;7.180;2022-11-27T13:21:33;10.50;99.90
13251;DHT22;6692;50.710;7.180;2022-11-27T13:23:33;10.50;99.90
13251;DHT22;6692;50.710;7.180;2022-11-27T13:25:35;10.50;99.90
13251;DHT22;6692;50.710;7.180;2022-11-27T13:27:34;10.60;99.90
13251;DHT22;6692;50.710;7.180;2022-11-27T13:29:41;10.50;99.90
13251;DHT22;6692;50.710;7.180;2022-11-27T13:31:41;10.50;99.90
13251;DHT22;6692;50.710;7.180;2022-11-27T13:33:41;10.60;99.90